Terminal Aerodrome Forecast
Issued by NWS

Home | Current Version | Previous Version | Text Only | Print | Product List | Glossary On
Versions: 1 2 3 4 5 6 7 8 9 10 11 12 13 14 15 16 17 18 19 20 21 22 23 24 25 26 27
000
FTUS45 KBYZ 231126
TAFLVM
TAF
KLVM 231126Z 2312/2412 09011G20KT 4SM RASN SCT007 OVC015
      TEMPO 2313/2316 09015G25KT 1 1/2SM -SN OVC007
     FM231600 08014G23KT 3SM -SHRASN OVC015
     FM232100 06011KT 5SM -SHRA SCT015 BKN030
     FM240300 25009KT P6SM SCT025 SCT150
     FM240700 VRB06KT P6SM FEW150=

USA.gov is the U.S. government's official web portal to all federal, state and local government web resources and services.